sensor_id;sensor_type;location;lat;lon;timestamp;temperature;humidity
1355;DHT22;671;48.972;9.276;2023-08-21T00:00:16;24.70;99.90
1355;DHT22;671;48.972;9.276;2023-08-21T00:02:42;24.70;99.90
1355;DHT22;671;48.972;9.276;2023-08-21T00:05:09;24.70;99.90
1355;DHT22;671;48.972;9.276;2023-08-21T00:07:35;24.70;99.90
1355;DHT22;671;48.972;9.276;2023-08-21T00:10:02;24.70;99.90
1355;DHT22;671;48.972;9.276;2023-08-21T00:12:28;24.60;99.90
1355;DHT22;671;48.972;9.276;2023-08-21T00:14:55;24.60;99.90
1355;DHT22;671;48.972;9.276;2023-08-21T00:17:21;24.60;99.90
1355;DHT22;671;48.972;9.276;2023-08-21T00:19:48;24.50;99.90
1355;DHT22;671;48.972;9.276;2023-08-21T00:22:14;24.60;99.90
1355;DHT22;671;48.972;9.276;2023-08-21T00:24:41;24.50;99.90
1355;DHT22;671;48.972;9.276;2023-08-21T00:27:07;24.50;99.90
1355;DHT22;671;48.972;9.276;2023-08-21T00:29:33;24.50;99.90
1355;DHT22;671;48.972;9.276;2023-08-21T00:32:00;24.40;99.90
1355;DHT22;671;48.972;9.276;2023-08-21T00:34:26;24.40;99.90
1355;DHT22;671;48.972;9.276;2023-08-21T00:36:53;24.40;99.90
1355;DHT22;671;48.972;9.276;2023-08-21T00:39:19;24.30;99.90
1355;DHT22;671;48.972;9.276;2023-08-21T00:41:46;24.30;99.90
1355;DHT22;671;48.972;9.276;2023-08-21T00:44:12;24.20;99.90
1355;DHT22;671;48.972;9.276;2023-08-21T00:46:39;24.20;99.90
1355;DHT22;671;48.972;9.276;2023-08-21T00:49:06;24.20;99.90
1355;DHT22;671;48.972;9.276;2023-08-21T00:51:32;24.20;99.90
1355;DHT22;671;48.972;9.276;2023-08-21T00:53:59;24.20;99.90
1355;DHT22;671;48.972;9.276;2023-08-21T00:56:25;24.10;99.90
1355;DHT22;671;48.972;9.276;2023-08-21T00:58:52;24.10;99.90
1355;DHT22;671;48.972;9.276;2023-08-21T01:01:23;24.10;99.90
1355;DHT22;671;48.972;9.276;2023-08-21T01:03:50;24.00;99.90
1355;DHT22;671;48.972;9.276;2023-08-21T01:06:19;24.00;99.90
1355;DHT22;671;48.972;9.276;2023-08-21T01:09:02;24.00;99.90
1355;DHT22;671;48.972;9.276;2023-08-21T01:11:49;23.90;99.90
1355;DHT22;671;48.972;9.276;2023-08-21T01:14:51;23.90;99.90
1355;DHT22;671;48.972;9.276;2023-08-21T01:17:21;23.90;99.90
1355;DHT22;671;48.972;9.276;2023-08-21T01:19:50;23.90;99.90
1355;DHT22;671;48.972;9.276;2023-08-21T01:22:17;23.90;99.90
1355;DHT22;671;48.972;9.276;2023-08-21T01:24:43;23.90;99.90
1355;DHT22;671;48.972;9.276;2023-08-21T01:27:10;23.80;99.90
1355;DHT22;671;48.972;9.276;2023-08-21T01:29:38;23.80;99.90
1355;DHT22;671;48.972;9.276;2023-08-21T01:32:09;23.80;99.90
1355;DHT22;671;48.972;9.276;2023-08-21T01:34:39;23.70;99.90
1355;DHT22;671;48.972;9.276;2023-08-21T01:37:07;23.60;99.90
1355;DHT22;671;48.972;9.276;2023-08-21T01:39:34;23.60;99.90
1355;DHT22;671;48.972;9.276;2023-08-21T01:42:01;23.60;99.90
1355;DHT22;671;48.972;9.276;2023-08-21T01:44:27;23.50;99.90
1355;DHT22;671;48.972;9.276;2023-08-21T01:46:53;23.50;99.90
1355;DHT22;671;48.972;9.276;2023-08-21T01:49:20;23.50;99.90
1355;DHT22;671;48.972;9.276;2023-08-21T01:51:47;23.50;99.90
1355;DHT22;671;48.972;9.276;2023-08-21T01:54:13;23.50;99.90
1355;DHT22;671;48.972;9.276;2023-08-21T01:56:40;23.50;99.90
1355;DHT22;671;48.972;9.276;2023-08-21T01:59:06;23.50;99.90
1355;DHT22;671;48.972;9.276;2023-08-21T02:01:33;23.40;99.90
1355;DHT22;671;48.972;9.276;2023-08-21T02:04:00;23.40;99.90
1355;DHT22;671;48.972;9.276;2023-08-21T02:06:26;23.40;99.90
1355;DHT22;671;48.972;9.276;2023-08-21T02:08:53;23.30;99.90
1355;DHT22;671;48.972;9.276;2023-08-21T02:11:19;23.30;99.90
1355;DHT22;671;48.972;9.276;2023-08-21T02:13:46;23.30;99.90
1355;DHT22;671;48.972;9.276;2023-08-21T02:16:12;23.30;99.90
1355;DHT22;671;48.972;9.276;2023-08-21T02:18:39;23.30;99.90
1355;DHT22;671;48.972;9.276;2023-08-21T02:21:05;23.30;99.90
1355;DHT22;671;48.972;9.276;2023-08-21T02:23:32;23.30;99.90
1355;DHT22;671;48.972;9.276;2023-08-21T02:25:58;23.20;99.90
1355;DHT22;671;48.972;9.276;2023-08-21T02:28:25;23.20;99.90
1355;DHT22;671;48.972;9.276;2023-08-21T02:30:51;23.20;99.90
1355;DHT22;671;48.972;9.276;2023-08-21T02:33:18;23.20;99.90
1355;DHT22;671;48.972;9.276;2023-08-21T02:35:44;23.20;99.90
1355;DHT22;671;48.972;9.276;2023-08-21T02:38:11;23.20;99.90
1355;DHT22;671;48.972;9.276;2023-08-21T02:40:37;23.10;99.90
1355;DHT22;671;48.972;9.276;2023-08-21T02:43:04;23.10;99.90
1355;DHT22;671;48.972;9.276;2023-08-21T02:45:31;23.10;99.90
1355;DHT22;671;48.972;9.276;2023-08-21T02:47:57;23.10;99.90
1355;DHT22;671;48.972;9.276;2023-08-21T02:50:24;23.00;99.90
1355;DHT22;671;48.972;9.276;2023-08-21T02:52:50;23.00;99.90
1355;DHT22;671;48.972;9.276;2023-08-21T02:55:17;23.00;99.90
1355;DHT22;671;48.972;9.276;2023-08-21T02:57:43;23.00;99.90
1355;DHT22;671;48.972;9.276;2023-08-21T03:00:10;23.00;99.90
1355;DHT22;671;48.972;9.276;2023-08-21T03:02:38;23.00;99.90
1355;DHT22;671;48.972;9.276;2023-08-21T03:05:05;22.90;99.90
1355;DHT22;671;48.972;9.276;2023-08-21T03:07:32;22.90;99.90
1355;DHT22;671;48.972;9.276;2023-08-21T03:09:58;22.90;99.90
1355;DHT22;671;48.972;9.276;2023-08-21T03:12:25;22.90;99.90
1355;DHT22;671;48.972;9.276;2023-08-21T03:14:51;22.90;99.90
1355;DHT22;671;48.972;9.276;2023-08-21T03:17:17;22.80;99.90
1355;DHT22;671;48.972;9.276;2023-08-21T03:19:44;22.80;99.90
1355;DHT22;671;48.972;9.276;2023-08-21T03:22:10;22.80;99.90
1355;DHT22;671;48.972;9.276;2023-08-21T03:24:37;22.70;99.90
1355;DHT22;671;48.972;9.276;2023-08-21T03:27:04;22.70;99.90
1355;DHT22;671;48.972;9.276;2023-08-21T03:29:30;22.60;99.90
1355;DHT22;671;48.972;9.276;2023-08-21T03:31:57;22.60;99.90
1355;DHT22;671;48.972;9.276;2023-08-21T03:34:24;22.70;99.90
1355;DHT22;671;48.972;9.276;2023-08-21T03:36:50;22.60;99.90
1355;DHT22;671;48.972;9.276;2023-08-21T03:39:17;22.60;99.90
1355;DHT22;671;48.972;9.276;2023-08-21T03:41:43;22.60;99.90
1355;DHT22;671;48.972;9.276;2023-08-21T03:44:10;22.60;99.90
1355;DHT22;671;48.972;9.276;2023-08-21T03:46:36;22.50;99.90
1355;DHT22;671;48.972;9.276;2023-08-21T03:49:03;22.50;99.90
1355;DHT22;671;48.972;9.276;2023-08-21T03:51:30;22.50;99.90
1355;DHT22;671;48.972;9.276;2023-08-21T03:53:57;22.40;99.90
1355;DHT22;671;48.972;9.276;2023-08-21T03:56:23;22.40;99.90
1355;DHT22;671;48.972;9.276;2023-08-21T03:58:51;22.40;99.90
1355;DHT22;671;48.972;9.276;2023-08-21T04:01:17;22.40;99.90
1355;DHT22;671;48.972;9.276;2023-08-21T04:03:44;22.30;99.90
1355;DHT22;671;48.972;9.276;2023-08-21T04:06:10;22.20;99.90
1355;DHT22;671;48.972;9.276;2023-08-21T04:08:37;22.20;99.90
1355;DHT22;671;48.972;9.276;2023-08-21T04:11:05;22.10;99.90
1355;DHT22;671;48.972;9.276;2023-08-21T04:13:32;22.10;99.90
1355;DHT22;671;48.972;9.276;2023-08-21T04:15:58;22.10;99.90
1355;DHT22;671;48.972;9.276;2023-08-21T04:18:25;22.10;99.90
1355;DHT22;671;48.972;9.276;2023-08-21T04:20:51;22.10;99.90
1355;DHT22;671;48.972;9.276;2023-08-21T04:23:17;22.10;99.90
1355;DHT22;671;48.972;9.276;2023-08-21T04:25:44;22.10;99.90
1355;DHT22;671;48.972;9.276;2023-08-21T04:28:10;22.10;99.90
1355;DHT22;671;48.972;9.276;2023-08-21T04:30:37;22.10;99.90
1355;DHT22;671;48.972;9.276;2023-08-21T04:33:05;22.10;99.90
1355;DHT22;671;48.972;9.276;2023-08-21T04:35:39;22.10;99.90
1355;DHT22;671;48.972;9.276;2023-08-21T04:38:05;22.10;99.90
1355;DHT22;671;48.972;9.276;2023-08-21T04:40:33;22.10;99.90
1355;DHT22;671;48.972;9.276;2023-08-21T04:42:59;22.10;99.90
1355;DHT22;671;48.972;9.276;2023-08-21T04:45:26;22.20;99.90
1355;DHT22;671;48.972;9.276;2023-08-21T04:47:52;22.20;99.90
1355;DHT22;671;48.972;9.276;2023-08-21T04:50:19;22.20;99.90
1355;DHT22;671;48.972;9.276;2023-08-21T04:52:45;22.30;99.90
1355;DHT22;671;48.972;9.276;2023-08-21T04:55:12;22.30;99.90
1355;DHT22;671;48.972;9.276;2023-08-21T04:57:38;22.30;99.90
1355;DHT22;671;48.972;9.276;2023-08-21T05:00:05;22.40;99.90
1355;DHT22;671;48.972;9.276;2023-08-21T05:02:33;22.40;99.90
1355;DHT22;671;48.972;9.276;2023-08-21T05:05:00;22.40;99.90
1355;DHT22;671;48.972;9.276;2023-08-21T05:07:26;22.50;99.90
1355;DHT22;671;48.972;9.276;2023-08-21T05:09:53;22.60;99.90
1355;DHT22;671;48.972;9.276;2023-08-21T05:12:19;22.70;99.90
1355;DHT22;671;48.972;9.276;2023-08-21T05:14:46;23.10;99.90
1355;DHT22;671;48.972;9.276;2023-08-21T05:17:12;24.50;99.90
1355;DHT22;671;48.972;9.276;2023-08-21T05:19:39;24.90;99.90
1355;DHT22;671;48.972;9.276;2023-08-21T05:22:05;25.30;99.90
1355;DHT22;671;48.972;9.276;2023-08-21T05:24:32;24.80;99.90
1355;DHT22;671;48.972;9.276;2023-08-21T05:26:58;24.40;99.90
1355;DHT22;671;48.972;9.276;2023-08-21T05:29:25;24.20;99.90
1355;DHT22;671;48.972;9.276;2023-08-21T05:31:52;24.10;99.90
1355;DHT22;671;48.972;9.276;2023-08-21T05:34:18;24.30;99.90
1355;DHT22;671;48.972;9.276;2023-08-21T05:36:45;24.40;99.90
1355;DHT22;671;48.972;9.276;2023-08-21T05:39:11;24.30;99.90
1355;DHT22;671;48.972;9.276;2023-08-21T05:41:38;24.20;99.90
1355;DHT22;671;48.972;9.276;2023-08-21T05:44:04;24.10;99.90
1355;DHT22;671;48.972;9.276;2023-08-21T05:46:31;24.00;99.90
1355;DHT22;671;48.972;9.276;2023-08-21T05:48:57;23.90;99.90
1355;DHT22;671;48.972;9.276;2023-08-21T05:51:24;23.90;99.90
1355;DHT22;671;48.972;9.276;2023-08-21T05:53:51;23.90;99.90
1355;DHT22;671;48.972;9.276;2023-08-21T05:56:17;23.90;99.90
1355;DHT22;671;48.972;9.276;2023-08-21T05:58:43;23.90;99.90
1355;DHT22;671;48.972;9.276;2023-08-21T06:01:11;24.00;99.90
1355;DHT22;671;48.972;9.276;2023-08-21T06:03:37;24.00;99.90
1355;DHT22;671;48.972;9.276;2023-08-21T06:06:04;24.10;99.90
1355;DHT22;671;48.972;9.276;2023-08-21T06:08:31;24.00;99.90
1355;DHT22;671;48.972;9.276;2023-08-21T06:10:58;24.10;99.90
1355;DHT22;671;48.972;9.276;2023-08-21T06:13:25;24.20;99.90
1355;DHT22;671;48.972;9.276;2023-08-21T06:15:52;24.30;99.90
1355;DHT22;671;48.972;9.276;2023-08-21T06:18:19;24.40;99.90
1355;DHT22;671;48.972;9.276;2023-08-21T06:20:45;24.40;99.90
1355;DHT22;671;48.972;9.276;2023-08-21T06:23:12;24.50;99.90
1355;DHT22;671;48.972;9.276;2023-08-21T06:25:38;24.60;99.90
1355;DHT22;671;48.972;9.276;2023-08-21T06:28:05;24.70;99.90
1355;DHT22;671;48.972;9.276;2023-08-21T06:30:31;24.70;99.90
1355;DHT22;671;48.972;9.276;2023-08-21T06:32:58;24.70;99.90
1355;DHT22;671;48.972;9.276;2023-08-21T06:35:24;24.80;99.90
1355;DHT22;671;48.972;9.276;2023-08-21T06:37:51;24.90;99.90
1355;DHT22;671;48.972;9.276;2023-08-21T06:40:18;24.90;99.90
1355;DHT22;671;48.972;9.276;2023-08-21T06:42:44;24.90;99.90
1355;DHT22;671;48.972;9.276;2023-08-21T06:45:10;25.00;99.90
1355;DHT22;671;48.972;9.276;2023-08-21T06:47:37;25.10;99.90
1355;DHT22;671;48.972;9.276;2023-08-21T06:50:04;25.20;99.90
1355;DHT22;671;48.972;9.276;2023-08-21T06:52:30;25.20;99.90
1355;DHT22;671;48.972;9.276;2023-08-21T06:54:57;25.30;99.90
1355;DHT22;671;48.972;9.276;2023-08-21T06:57:23;25.30;99.90
1355;DHT22;671;48.972;9.276;2023-08-21T06:59:50;25.40;99.90
1355;DHT22;671;48.972;9.276;2023-08-21T07:02:16;25.50;99.90
1355;DHT22;671;48.972;9.276;2023-08-21T07:04:43;25.50;99.90
1355;DHT22;671;48.972;9.276;2023-08-21T07:07:09;25.60;99.90
1355;DHT22;671;48.972;9.276;2023-08-21T07:09:35;25.70;99.90
1355;DHT22;671;48.972;9.276;2023-08-21T07:12:02;25.70;99.90
1355;DHT22;671;48.972;9.276;2023-08-21T07:14:29;25.80;99.90
1355;DHT22;671;48.972;9.276;2023-08-21T07:16:55;25.90;99.90
1355;DHT22;671;48.972;9.276;2023-08-21T07:19:22;26.00;99.90
1355;DHT22;671;48.972;9.276;2023-08-21T07:21:48;26.10;99.90
1355;DHT22;671;48.972;9.276;2023-08-21T07:24:15;26.10;99.90
1355;DHT22;671;48.972;9.276;2023-08-21T07:26:41;26.10;99.90
1355;DHT22;671;48.972;9.276;2023-08-21T07:29:08;26.20;99.90
1355;DHT22;671;48.972;9.276;2023-08-21T07:31:34;26.30;99.90
1355;DHT22;671;48.972;9.276;2023-08-21T07:34:01;26.40;99.90
1355;DHT22;671;48.972;9.276;2023-08-21T07:36:27;26.50;99.90
1355;DHT22;671;48.972;9.276;2023-08-21T07:38:54;26.50;99.90
1355;DHT22;671;48.972;9.276;2023-08-21T07:41:20;26.50;99.90
1355;DHT22;671;48.972;9.276;2023-08-21T07:43:47;26.60;99.90
1355;DHT22;671;48.972;9.276;2023-08-21T07:46:13;26.70;99.90
1355;DHT22;671;48.972;9.276;2023-08-21T07:48:42;26.70;99.90
1355;DHT22;671;48.972;9.276;2023-08-21T07:51:09;26.70;99.90
1355;DHT22;671;48.972;9.276;2023-08-21T07:53:36;26.80;99.90
1355;DHT22;671;48.972;9.276;2023-08-21T07:56:03;26.90;99.90
1355;DHT22;671;48.972;9.276;2023-08-21T07:58:32;27.00;99.90
1355;DHT22;671;48.972;9.276;2023-08-21T08:00:59;27.10;99.90
1355;DHT22;671;48.972;9.276;2023-08-21T08:03:27;27.20;99.90
1355;DHT22;671;48.972;9.276;2023-08-21T08:05:54;27.20;99.90
1355;DHT22;671;48.972;9.276;2023-08-21T08:08:20;27.40;99.90
1355;DHT22;671;48.972;9.276;2023-08-21T08:10:47;27.40;99.90
1355;DHT22;671;48.972;9.276;2023-08-21T08:13:13;27.50;99.90
1355;DHT22;671;48.972;9.276;2023-08-21T08:15:40;27.60;99.90
1355;DHT22;671;48.972;9.276;2023-08-21T08:18:11;27.60;99.90
1355;DHT22;671;48.972;9.276;2023-08-21T08:20:37;27.70;99.90
1355;DHT22;671;48.972;9.276;2023-08-21T08:23:04;27.70;99.90
1355;DHT22;671;48.972;9.276;2023-08-21T08:25:30;27.90;99.90
1355;DHT22;671;48.972;9.276;2023-08-21T08:27:56;27.90;99.90
1355;DHT22;671;48.972;9.276;2023-08-21T08:30:22;28.00;99.90
1355;DHT22;671;48.972;9.276;2023-08-21T08:32:49;28.10;99.90
1355;DHT22;671;48.972;9.276;2023-08-21T08:35:15;28.10;99.90
1355;DHT22;671;48.972;9.276;2023-08-21T08:37:42;28.20;99.90
1355;DHT22;671;48.972;9.276;2023-08-21T08:40:10;28.30;99.90
1355;DHT22;671;48.972;9.276;2023-08-21T08:42:37;28.30;99.90
1355;DHT22;671;48.972;9.276;2023-08-21T08:45:04;28.40;99.90
1355;DHT22;671;48.972;9.276;2023-08-21T08:47:32;28.50;99.90
1355;DHT22;671;48.972;9.276;2023-08-21T08:50:04;28.60;99.90
1355;DHT22;671;48.972;9.276;2023-08-21T08:52:37;28.60;99.90
1355;DHT22;671;48.972;9.276;2023-08-21T08:55:04;28.70;99.90
1355;DHT22;671;48.972;9.276;2023-08-21T08:57:33;28.80;99.90
1355;DHT22;671;48.972;9.276;2023-08-21T09:00:01;28.90;99.90
1355;DHT22;671;48.972;9.276;2023-08-21T09:02:28;29.00;99.90
1355;DHT22;671;48.972;9.276;2023-08-21T09:04:54;29.10;99.90
1355;DHT22;671;48.972;9.276;2023-08-21T09:07:21;29.20;99.90
1355;DHT22;671;48.972;9.276;2023-08-21T09:09:48;29.20;99.90
1355;DHT22;671;48.972;9.276;2023-08-21T09:12:17;29.20;99.90
1355;DHT22;671;48.972;9.276;2023-08-21T09:14:44;29.40;99.90
1355;DHT22;671;48.972;9.276;2023-08-21T09:17:12;29.50;99.90
1355;DHT22;671;48.972;9.276;2023-08-21T09:19:39;29.60;99.90
1355;DHT22;671;48.972;9.276;2023-08-21T09:22:16;29.60;99.90
1355;DHT22;671;48.972;9.276;2023-08-21T09:25:03;29.60;99.90
1355;DHT22;671;48.972;9.276;2023-08-21T09:27:34;29.70;99.90
1355;DHT22;671;48.972;9.276;2023-08-21T09:30:04;29.70;99.90
1355;DHT22;671;48.972;9.276;2023-08-21T09:32:31;29.80;99.90
1355;DHT22;671;48.972;9.276;2023-08-21T09:35:17;30.00;99.90
1355;DHT22;671;48.972;9.276;2023-08-21T09:37:46;30.10;99.90
1355;DHT22;671;48.972;9.276;2023-08-21T09:40:14;30.20;99.90
1355;DHT22;671;48.972;9.276;2023-08-21T09:42:41;30.30;99.90
1355;DHT22;671;48.972;9.276;2023-08-21T09:45:08;30.30;99.90
1355;DHT22;671;48.972;9.276;2023-08-21T09:47:35;30.40;99.90
1355;DHT22;671;48.972;9.276;2023-08-21T09:50:03;30.50;99.90
1355;DHT22;671;48.972;9.276;2023-08-21T09:52:30;30.60;99.90
1355;DHT22;671;48.972;9.276;2023-08-21T09:54:57;30.60;99.90
1355;DHT22;671;48.972;9.276;2023-08-21T09:57:24;30.70;99.90
1355;DHT22;671;48.972;9.276;2023-08-21T09:59:53;30.70;99.90
1355;DHT22;671;48.972;9.276;2023-08-21T10:02:23;30.90;99.90
1355;DHT22;671;48.972;9.276;2023-08-21T10:04:52;30.90;99.90
1355;DHT22;671;48.972;9.276;2023-08-21T10:07:21;31.00;99.90
1355;DHT22;671;48.972;9.276;2023-08-21T10:09:50;31.00;99.90
1355;DHT22;671;48.972;9.276;2023-08-21T10:12:17;31.10;99.90
1355;DHT22;671;48.972;9.276;2023-08-21T10:14:44;31.20;99.90
1355;DHT22;671;48.972;9.276;2023-08-21T10:17:10;31.20;99.90
1355;DHT22;671;48.972;9.276;2023-08-21T10:19:37;31.20;99.90
1355;DHT22;671;48.972;9.276;2023-08-21T10:22:03;31.20;99.90
1355;DHT22;671;48.972;9.276;2023-08-21T10:24:35;31.30;99.90
1355;DHT22;671;48.972;9.276;2023-08-21T10:27:06;31.30;99.90
1355;DHT22;671;48.972;9.276;2023-08-21T10:29:33;31.30;99.90
1355;DHT22;671;48.972;9.276;2023-08-21T10:32:04;31.40;99.90
1355;DHT22;671;48.972;9.276;2023-08-21T10:34:33;31.50;99.90
1355;DHT22;671;48.972;9.276;2023-08-21T10:39:27;31.70;99.90
1355;DHT22;671;48.972;9.276;2023-08-21T10:47:22;31.80;99.90
1355;DHT22;671;48.972;9.276;2023-08-21T10:49:58;31.80;99.90
1355;DHT22;671;48.972;9.276;2023-08-21T10:52:29;31.80;99.90
1355;DHT22;671;48.972;9.276;2023-08-21T10:54:57;31.80;99.90
1355;DHT22;671;48.972;9.276;2023-08-21T10:57:25;31.90;99.90
1355;DHT22;671;48.972;9.276;2023-08-21T11:02:20;32.00;99.90
1355;DHT22;671;48.972;9.276;2023-08-21T11:04:46;32.00;99.90
1355;DHT22;671;48.972;9.276;2023-08-21T11:07:14;32.10;99.90
1355;DHT22;671;48.972;9.276;2023-08-21T11:09:40;32.20;99.90
1355;DHT22;671;48.972;9.276;2023-08-21T11:12:08;32.20;99.90
1355;DHT22;671;48.972;9.276;2023-08-21T11:14:35;32.40;99.90
1355;DHT22;671;48.972;9.276;2023-08-21T11:17:02;32.40;99.90
1355;DHT22;671;48.972;9.276;2023-08-21T11:19:31;32.40;99.90
1355;DHT22;671;48.972;9.276;2023-08-21T11:21:58;32.50;99.90
1355;DHT22;671;48.972;9.276;2023-08-21T11:24:31;32.60;99.90
1355;DHT22;671;48.972;9.276;2023-08-21T11:26:58;32.70;99.90
1355;DHT22;671;48.972;9.276;2023-08-21T11:29:24;32.90;99.90
1355;DHT22;671;48.972;9.276;2023-08-21T11:31:52;32.90;99.90
1355;DHT22;671;48.972;9.276;2023-08-21T11:34:19;33.00;99.90
1355;DHT22;671;48.972;9.276;2023-08-21T11:36:47;33.00;99.90
1355;DHT22;671;48.972;9.276;2023-08-21T11:39:13;33.10;99.90
1355;DHT22;671;48.972;9.276;2023-08-21T11:41:58;33.10;99.90
1355;DHT22;671;48.972;9.276;2023-08-21T11:44:25;33.20;99.90
1355;DHT22;671;48.972;9.276;2023-08-21T11:46:52;33.30;99.90
1355;DHT22;671;48.972;9.276;2023-08-21T11:49:21;33.40;99.90
1355;DHT22;671;48.972;9.276;2023-08-21T11:51:49;33.40;99.90
1355;DHT22;671;48.972;9.276;2023-08-21T11:54:17;33.50;99.90
1355;DHT22;671;48.972;9.276;2023-08-21T11:56:47;33.50;99.90
1355;DHT22;671;48.972;9.276;2023-08-21T11:59:22;33.60;99.90
1355;DHT22;671;48.972;9.276;2023-08-21T12:01:50;33.70;99.90
1355;DHT22;671;48.972;9.276;2023-08-21T12:04:18;33.80;99.90
1355;DHT22;671;48.972;9.276;2023-08-21T12:06:45;33.80;99.90
1355;DHT22;671;48.972;9.276;2023-08-21T12:09:12;33.90;99.90
1355;DHT22;671;48.972;9.276;2023-08-21T12:11:38;34.00;99.90
1355;DHT22;671;48.972;9.276;2023-08-21T12:14:05;34.20;99.90
1355;DHT22;671;48.972;9.276;2023-08-21T12:16:31;34.20;99.90
1355;DHT22;671;48.972;9.276;2023-08-21T12:18:58;34.30;99.90
1355;DHT22;671;48.972;9.276;2023-08-21T12:21:25;34.30;99.90
1355;DHT22;671;48.972;9.276;2023-08-21T12:23:52;34.40;99.90
1355;DHT22;671;48.972;9.276;2023-08-21T12:26:18;34.40;99.90
1355;DHT22;671;48.972;9.276;2023-08-21T12:28:48;34.50;99.90
1355;DHT22;671;48.972;9.276;2023-08-21T12:31:15;34.40;99.90
1355;DHT22;671;48.972;9.276;2023-08-21T12:33:42;34.40;99.90
1355;DHT22;671;48.972;9.276;2023-08-21T12:36:08;34.50;99.90
1355;DHT22;671;48.972;9.276;2023-08-21T12:38:35;34.40;99.90
1355;DHT22;671;48.972;9.276;2023-08-21T12:41:02;34.30;99.90
1355;DHT22;671;48.972;9.276;2023-08-21T12:43:30;34.20;99.90
1355;DHT22;671;48.972;9.276;2023-08-21T12:45:56;34.10;99.90
1355;DHT22;671;48.972;9.276;2023-08-21T12:48:23;34.20;99.90
1355;DHT22;671;48.972;9.276;2023-08-21T12:50:49;34.30;99.90
1355;DHT22;671;48.972;9.276;2023-08-21T12:53:16;34.40;99.90
1355;DHT22;671;48.972;9.276;2023-08-21T12:55:43;34.40;99.90
1355;DHT22;671;48.972;9.276;2023-08-21T12:58:09;34.30;99.90
1355;DHT22;671;48.972;9.276;2023-08-21T13:00:36;34.20;99.90
1355;DHT22;671;48.972;9.276;2023-08-21T13:03:03;34.30;99.90
1355;DHT22;671;48.972;9.276;2023-08-21T13:05:29;34.20;99.90
1355;DHT22;671;48.972;9.276;2023-08-21T13:07:56;34.30;99.90
1355;DHT22;671;48.972;9.276;2023-08-21T13:10:22;34.40;99.90
1355;DHT22;671;48.972;9.276;2023-08-21T13:12:49;34.40;99.90
1355;DHT22;671;48.972;9.276;2023-08-21T13:15:17;34.40;99.90
1355;DHT22;671;48.972;9.276;2023-08-21T13:17:44;34.40;99.90
1355;DHT22;671;48.972;9.276;2023-08-21T13:20:10;34.50;99.90
1355;DHT22;671;48.972;9.276;2023-08-21T13:22:52;34.60;99.90
1355;DHT22;671;48.972;9.276;2023-08-21T13:25:20;34.80;99.90
1355;DHT22;671;48.972;9.276;2023-08-21T13:27:47;34.80;99.90
1355;DHT22;671;48.972;9.276;2023-08-21T13:30:14;35.00;99.90
1355;DHT22;671;48.972;9.276;2023-08-21T13:32:41;35.00;99.90
1355;DHT22;671;48.972;9.276;2023-08-21T13:35:08;34.90;99.90
1355;DHT22;671;48.972;9.276;2023-08-21T13:37:36;34.70;99.90
1355;DHT22;671;48.972;9.276;2023-08-21T13:40:03;34.60;99.90
1355;DHT22;671;48.972;9.276;2023-08-21T13:42:40;34.60;99.90
1355;DHT22;671;48.972;9.276;2023-08-21T13:45:08;34.60;99.90
1355;DHT22;671;48.972;9.276;2023-08-21T13:47:38;34.60;99.90
1355;DHT22;671;48.972;9.276;2023-08-21T13:50:06;34.60;99.30
1355;DHT22;671;48.972;9.276;2023-08-21T13:52:33;34.60;99.90
1355;DHT22;671;48.972;9.276;2023-08-21T13:55:01;34.60;99.90
1355;DHT22;671;48.972;9.276;2023-08-21T13:57:28;34.60;98.80
1355;DHT22;671;48.972;9.276;2023-08-21T13:59:55;34.60;98.00
1355;DHT22;671;48.972;9.276;2023-08-21T14:02:21;34.50;97.60
1355;DHT22;671;48.972;9.276;2023-08-21T14:04:49;34.50;98.60
1355;DHT22;671;48.972;9.276;2023-08-21T14:07:16;34.50;98.50
1355;DHT22;671;48.972;9.276;2023-08-21T14:09:43;34.60;98.30
1355;DHT22;671;48.972;9.276;2023-08-21T14:12:09;34.60;99.20
1355;DHT22;671;48.972;9.276;2023-08-21T14:14:36;34.60;98.20
1355;DHT22;671;48.972;9.276;2023-08-21T14:17:03;34.60;97.60
1355;DHT22;671;48.972;9.276;2023-08-21T14:19:31;34.70;98.50
1355;DHT22;671;48.972;9.276;2023-08-21T14:21:58;34.60;98.40
1355;DHT22;671;48.972;9.276;2023-08-21T14:24:26;34.60;99.10
1355;DHT22;671;48.972;9.276;2023-08-21T14:26:52;34.50;98.30
1355;DHT22;671;48.972;9.276;2023-08-21T14:29:19;34.50;99.10
1355;DHT22;671;48.972;9.276;2023-08-21T14:31:45;34.60;99.50
1355;DHT22;671;48.972;9.276;2023-08-21T14:34:14;34.60;99.60
1355;DHT22;671;48.972;9.276;2023-08-21T14:36:41;34.60;98.80
1355;DHT22;671;48.972;9.276;2023-08-21T14:39:08;34.50;98.90
1355;DHT22;671;48.972;9.276;2023-08-21T14:41:43;34.50;98.90
1355;DHT22;671;48.972;9.276;2023-08-21T14:44:10;34.50;99.20
1355;DHT22;671;48.972;9.276;2023-08-21T14:46:37;34.50;99.30
1355;DHT22;671;48.972;9.276;2023-08-21T14:49:03;34.60;99.20
1355;DHT22;671;48.972;9.276;2023-08-21T14:51:30;34.60;99.00
1355;DHT22;671;48.972;9.276;2023-08-21T14:53:56;34.50;98.90
1355;DHT22;671;48.972;9.276;2023-08-21T14:56:23;34.50;99.70
1355;DHT22;671;48.972;9.276;2023-08-21T14:58:49;34.50;98.60
1355;DHT22;671;48.972;9.276;2023-08-21T15:01:16;34.50;99.10
1355;DHT22;671;48.972;9.276;2023-08-21T15:03:42;34.50;98.80
1355;DHT22;671;48.972;9.276;2023-08-21T15:06:10;34.50;98.60
1355;DHT22;671;48.972;9.276;2023-08-21T15:08:37;34.50;98.40
1355;DHT22;671;48.972;9.276;2023-08-21T15:11:04;34.40;99.30
1355;DHT22;671;48.972;9.276;2023-08-21T15:13:31;34.40;99.20
1355;DHT22;671;48.972;9.276;2023-08-21T15:15:57;34.50;99.10
1355;DHT22;671;48.972;9.276;2023-08-21T15:18:24;34.40;98.60
1355;DHT22;671;48.972;9.276;2023-08-21T15:20:50;34.40;99.00
1355;DHT22;671;48.972;9.276;2023-08-21T15:23:16;34.40;99.90
1355;DHT22;671;48.972;9.276;2023-08-21T15:25:43;34.40;99.00
1355;DHT22;671;48.972;9.276;2023-08-21T15:28:10;34.30;99.10
1355;DHT22;671;48.972;9.276;2023-08-21T15:30:36;34.30;98.70
1355;DHT22;671;48.972;9.276;2023-08-21T15:33:03;34.40;99.20
1355;DHT22;671;48.972;9.276;2023-08-21T15:35:33;34.40;99.00
1355;DHT22;671;48.972;9.276;2023-08-21T15:37:59;34.40;98.80
1355;DHT22;671;48.972;9.276;2023-08-21T15:40:26;34.20;99.10
1355;DHT22;671;48.972;9.276;2023-08-21T15:42:52;34.10;99.20
1355;DHT22;671;48.972;9.276;2023-08-21T15:45:19;34.00;99.00
1355;DHT22;671;48.972;9.276;2023-08-21T15:47:45;33.90;99.70
1355;DHT22;671;48.972;9.276;2023-08-21T15:50:17;33.90;99.50
1355;DHT22;671;48.972;9.276;2023-08-21T15:52:47;33.90;99.30
1355;DHT22;671;48.972;9.276;2023-08-21T15:55:14;33.80;99.20
1355;DHT22;671;48.972;9.276;2023-08-21T15:57:41;33.80;98.90
1355;DHT22;671;48.972;9.276;2023-08-21T16:00:08;33.80;99.10
1355;DHT22;671;48.972;9.276;2023-08-21T16:02:35;33.80;99.50
1355;DHT22;671;48.972;9.276;2023-08-21T16:05:01;33.80;99.20
1355;DHT22;671;48.972;9.276;2023-08-21T16:07:29;33.70;99.40
1355;DHT22;671;48.972;9.276;2023-08-21T16:09:56;33.70;99.30
1355;DHT22;671;48.972;9.276;2023-08-21T16:12:23;33.70;99.50
1355;DHT22;671;48.972;9.276;2023-08-21T16:14:49;33.70;99.50
1355;DHT22;671;48.972;9.276;2023-08-21T16:17:16;33.60;99.70
1355;DHT22;671;48.972;9.276;2023-08-21T16:19:43;33.60;99.90
1355;DHT22;671;48.972;9.276;2023-08-21T16:22:09;33.60;99.90
1355;DHT22;671;48.972;9.276;2023-08-21T16:24:36;33.50;99.60
1355;DHT22;671;48.972;9.276;2023-08-21T16:27:02;33.50;99.80